Vance, Alabama
Current Conditions -  °F | °C
As of 3:53 PM on Saturday 25 Oct 2014 (Local Time) from KTCL Reporting Station
Few Clouds Few Clouds  
Wind Chill: 78°   Ceiling: Unl
Heat Index: 79°   Visibility: 10mi
Dew Point: 58°   Wind: 3mph
Humidity: 50%   Direction: 280°W
Pressure: 30.05"   Gusts: NA
Location:  33.17°N, 87.23°W
Report Text: KTCL 252053Z 28003KT 10SM FEW043 26/14 A3005 RMK AO2 SLP173 T02560144 56018
Loading
Personal Weather Stations






























Interactive Weather Map
Tropical Storm Tracking
New forecast layout! Learn more

10-Day Weather Forecast

Advertisements
Track Severe Weather on mobile